Pearl Of Scandinavia — OWFU2 — position and weather

sailwx.info

Track history (hours):
 
Tides and Currents Weather Stations Pressure Air Temp Water Temp Dewpoint Dewpoint Depression Visibility Wind Speed Wind Dir Waves Ship Positions

Pearl Of Scandinavia

Last reported at 2017-Jan-22 23:33 UTC. Time now 2017-Jan-23 00:18 UTC.
Position N 57°50' E 011°17'.

Length 176.4 m; beam 34 m; draft 6.215 m.

Type: Ship. MMSI: 219945000.

Date/timePositionNaut miles runAvg speedWind from/ knotsBaromVisibWave heightAir tempDewpointWater temp
2017-Jan-22 23:33N 57°50' E 011°17'1616.0
2017-Jan-22 22:34N 58°05' E 011°08'1616.2
2017-Jan-22 21:33N 58°21' E 010°59'1616.1
2017-Jan-22 20:33N 58°36' E 010°51'1615.9
2017-Jan-22 19:34N 58°51' E 010°44'1616.2
2017-Jan-22 18:33N 59°07' E 010°39'1716.7
2017-Jan-22 17:34N 59°24' E 010°33'1615.7
2017-Jan-22 16:33N 59°40' E 010°37'1414.1
2017-Jan-22 15:33N 59°53' E 010°41'0 0.0
2017-Jan-22 08:19N 59°53' E 010°41'1013.9
2017-Jan-22 07:34N 59°43' E 010°35'1414.3
2017-Jan-22 06:33N 59°29' E 010°35'1615.8
2017-Jan-22 05:34N 59°13' E 010°38'1615.8
2017-Jan-22 04:34N 58°58' E 010°37'1616.2
2017-Jan-22 03:33N 58°41' E 010°35'1716.6
2017-Jan-22 02:33N 58°25' E 010°42'1916.6
2017-Jan-22 01:25N 58°07' E 010°53'1416.5
2017-Jan-22 00:33N 57°54' E 011°01'1616.0
2017-Jan-21 23:34N 57°39' E 011°12'1616.4
2017-Jan-21 22:33N 57°25' E 011°30'1616.3
2017-Jan-21 21:33N 57°10' E 011°40'1716.7
2017-Jan-21 20:33N 56°54' E 011°49'5016.8
2017-Jan-21 17:33N 56°09' E 012°30'1717.2
2017-Jan-21 16:34N 55°54' E 012°44'1312.8
2017-Jan-21 15:33N 55°42' E 012°36'0 0.1
2017-Jan-21 14:32N 55°42' E 012°36'0 0.0
2017-Jan-21 13:32N 55°42' E 012°36'0 0.0
2017-Jan-21 12:32N 55°42' E 012°36'0 0.0
2017-Jan-21 11:32N 55°42' E 012°36'0 0.0
2017-Jan-21 10:32N 55°42' E 012°36'0 0.0
2017-Jan-21 09:32N 55°42' E 012°36'0 0.3
2017-Jan-21 08:34N 55°42' E 012°36'1211.9
2017-Jan-21 07:33N 55°54' E 012°39'1313.4
2017-Jan-21 06:34N 56°07' E 012°32'6615.6
2017-Jan-21 02:21N 57°10' E 011°57'1417.2
2017-Jan-21 01:34N 57°21' E 011°43'1717.2
2017-Jan-21 00:33N 57°36' E 011°26'1817.5
2017-Jan-20 23:34N 57°52' E 011°15'1716.4
2017-Jan-20 22:33N 58°08' E 011°06'1616.2
2017-Jan-20 21:33N 58°24' E 010°57'1616.5
2017-Jan-20 20:33N 58°39' E 010°49'1716.6
2017-Jan-20 19:34N 58°56' E 010°43'1716.5
2017-Jan-20 18:33N 59°12' E 010°38'1716.6
2017-Jan-20 17:33N 59°29' E 010°34'1514.5
2017-Jan-20 16:33N 59°43' E 010°34'11 1.3
2017-Jan-20 08:14N 59°53' E 010°40'913.7
2017-Jan-20 07:34N 59°44' E 010°35'1413.9
2017-Jan-20 06:33N 59°31' E 010°35'1616.0
2017-Jan-20 05:33N 59°15' E 010°38'1615.6
2017-Jan-20 04:33N 58°59' E 010°42'1515.4
2017-Jan-20 03:33N 58°44' E 010°45'1615.6
2017-Jan-20 02:33N 58°29' E 010°53'1616.4
2017-Jan-20 01:33N 58°13' E 011°02'1616.3
2017-Jan-20 00:34N 57°58' E 011°12'1615.7
2017-Jan-19 23:33N 57°43' E 011°20'1615.7
2017-Jan-19 22:33N 57°28' E 011°29'1615.8
2017-Jan-19 21:34N 57°12' E 011°38'2116.4
2017-Jan-19 20:18N 56°53' E 011°50'1215.8
2017-Jan-19 19:33N 56°44' E 012°04'3516.8
2017-Jan-19 17:27N 56°12' E 012°29'1517.0
2017-Jan-19 16:33N 55°58' E 012°42'1515.4
2017-Jan-19 15:33N 55°43' E 012°38'1 1.4
2017-Jan-19 14:33N 55°42' E 012°36'0 0.0
2017-Jan-19 13:33N 55°42' E 012°36'0 0.0
2017-Jan-19 12:33N 55°42' E 012°36'0 0.0
2017-Jan-19 11:33N 55°42' E 012°36'0 0.0
2017-Jan-19 10:33N 55°42' E 012°36'0 0.0
2017-Jan-19 09:33N 55°42' E 012°36'0 0.0
2017-Jan-19 08:33N 55°42' E 012°36'0 0.0
2017-Jan-19 07:33N 55°42' E 012°36'0 0.0
2017-Jan-19 06:33N 55°42' E 012°36'0 0.0
2017-Jan-19 05:33N 55°42' E 012°36'0 0.0
2017-Jan-19 04:33N 55°42' E 012°36'0 0.0
2017-Jan-19 03:33N 55°42' E 012°36'0 0.0
2017-Jan-19 02:33N 55°42' E 012°36'0 0.0
2017-Jan-19 01:33N 55°42' E 012°36'0 0.0
2017-Jan-19 00:33N 55°42' E 012°36'0 0.0
2017-Jan-18 23:33N 55°42' E 012°36'0 0.0
2017-Jan-18 22:33N 55°42' E 012°36'0 0.0
2017-Jan-18 21:33N 55°42' E 012°36'0 0.0
2017-Jan-18 20:33N 55°42' E 012°36'0 0.0
2017-Jan-18 19:33N 55°42' E 012°36'0 0.0
2017-Jan-18 18:33N 55°42' E 012°36'0 0.0
2017-Jan-18 17:33N 55°42' E 012°36'0 0.0
2017-Jan-18 16:33N 55°42' E 012°36'6 6.0
2017-Jan-18 15:33N 55°47' E 012°42'9 8.6
2017-Jan-18 14:34N 55°56' E 012°39'5 5.0
2017-Jan-18 13:33N 55°53' E 012°47'3 2.4
2017-Jan-18 12:31N 55°51' E 012°50'0 0.0
2017-Jan-18 11:31N 55°51' E 012°50'0 0.0
2017-Jan-18 10:31N 55°51' E 012°50'0 0.0
2017-Jan-18 09:31N 55°51' E 012°50'0 0.0
2017-Jan-18 08:31N 55°51' E 012°50'0 0.0
2017-Jan-18 07:31N 55°51' E 012°50'0 0.0
2017-Jan-18 06:31N 55°51' E 012°50'0 0.0
2017-Jan-18 05:31N 55°51' E 012°50'0 0.0
2017-Jan-18 04:31N 55°51' E 012°50'0 0.0
2017-Jan-18 03:31N 55°51' E 012°50'0 0.0
2017-Jan-18 02:31N 55°51' E 012°50'0 0.0
2017-Jan-18 01:31N 55°51' E 012°50'0 0.0
2017-Jan-18 00:31N 55°51' E 012°50'0 0.0
2017-Jan-17 23:31N 55°51' E 012°50'0 0.0
2017-Jan-17 22:31N 55°51' E 012°50'0 0.0
2017-Jan-17 21:31N 55°51' E 012°50'0 0.0
2017-Jan-17 20:31N 55°51' E 012°50'0 0.0
2017-Jan-17 19:31N 55°51' E 012°50'0 0.0
2017-Jan-17 18:31N 55°51' E 012°50'0 0.0
2017-Jan-17 17:31N 55°51' E 012°50'0 0.0
2017-Jan-17 16:31N 55°51' E 012°50'0 0.0
2017-Jan-17 15:31N 55°51' E 012°50'0 0.0
2017-Jan-17 14:31N 55°51' E 012°50'0 0.0
2017-Jan-17 13:31N 55°51' E 012°50'0 0.0
2017-Jan-17 12:31N 55°51' E 012°50'0 0.0
2017-Jan-17 11:31N 55°51' E 012°50'0 0.0
2017-Jan-17 10:31N 55°51' E 012°50'0 0.0
2017-Jan-17 09:31N 55°51' E 012°50'0 0.0
2017-Jan-17 08:31N 55°51' E 012°50'0 0.0
2017-Jan-17 07:31N 55°51' E 012°50'0 0.0
2017-Jan-17 06:31N 55°51' E 012°50'0 0.0
2017-Jan-17 05:31N 55°51' E 012°50'0 0.0
2017-Jan-17 04:31N 55°51' E 012°50'0 0.0
2017-Jan-17 03:31N 55°51' E 012°50'0 0.0
2017-Jan-17 02:28N 55°51' E 012°50'0 0.0
2017-Jan-17 01:31N 55°51' E 012°50'0 0.0
2017-Jan-17 00:31N 55°51' E 012°50'0 0.0
2017-Jan-16 23:31N 55°51' E 012°50'0 0.0
2017-Jan-16 22:28N 55°51' E 012°50'0 0.0
2017-Jan-16 21:31N 55°51' E 012°50'0 0.0
2017-Jan-16 20:31N 55°51' E 012°50'0 0.0
2017-Jan-16 19:31N 55°51' E 012°50'0 0.0
2017-Jan-16 18:31N 55°51' E 012°50'0 0.0
2017-Jan-16 17:31N 55°51' E 012°50'0 0.0
2017-Jan-16 16:31N 55°51' E 012°50'0 0.0
2017-Jan-16 15:31N 55°51' E 012°50'0 0.0
2017-Jan-16 14:31N 55°51' E 012°50'0 0.0
2017-Jan-16 13:31N 55°51' E 012°50'0 0.0
2017-Jan-16 12:31N 55°51' E 012°50'0 0.0
2017-Jan-16 11:31N 55°51' E 012°50'0 0.0
2017-Jan-16 10:31N 55°51' E 012°50'0 0.0
2017-Jan-16 09:31N 55°51' E 012°50'0 0.0
2017-Jan-16 08:31N 55°51' E 012°50'0 0.0
2017-Jan-16 07:31N 55°51' E 012°50'0 0.0
2017-Jan-16 06:31N 55°51' E 012°50'0 0.0
2017-Jan-16 05:31N 55°51' E 012°50'0 0.0
2017-Jan-16 04:31N 55°51' E 012°50'0 0.0
2017-Jan-16 03:31N 55°51' E 012°50'0 0.0
2017-Jan-16 02:31N 55°51' E 012°50'0 0.0
2017-Jan-16 01:31N 55°51' E 012°50'0 0.0
2017-Jan-16 00:31N 55°51' E 012°50'0 0.0
2017-Jan-15 23:31N 55°51' E 012°50'0 0.0
2017-Jan-15 22:31N 55°51' E 012°50'0 0.0
2017-Jan-15 21:31N 55°51' E 012°50'0 0.0
2017-Jan-15 20:31N 55°51' E 012°50'0 0.0
2017-Jan-15 19:31N 55°51' E 012°50'0 0.0
2017-Jan-15 18:31N 55°51' E 012°50'0 0.0
2017-Jan-15 17:31N 55°51' E 012°50'0 0.0
2017-Jan-15 16:31N 55°51' E 012°50'0 0.0
2017-Jan-15 15:31N 55°51' E 012°50'0 0.0
2017-Jan-15 14:31N 55°51' E 012°50'0 0.0
2017-Jan-15 13:31N 55°51' E 012°50'0 0.0
2017-Jan-15 12:31N 55°51' E 012°50'0 0.0
2017-Jan-15 11:31N 55°51' E 012°50'0 0.0
2017-Jan-15 10:31N 55°51' E 012°50'0 0.0
2017-Jan-15 09:31N 55°51' E 012°50'0 0.0
2017-Jan-15 08:31N 55°51' E 012°50'0 0.0
2017-Jan-15 07:31N 55°51' E 012°50'0 0.0
2017-Jan-15 06:31N 55°51' E 012°50'0 0.0
2017-Jan-15 05:31N 55°51' E 012°50'0 0.0
2017-Jan-15 04:31N 55°51' E 012°50'0 0.0
2017-Jan-15 03:31N 55°51' E 012°50'0 0.0
2017-Jan-15 02:31N 55°51' E 012°50'0 0.0
2017-Jan-15 01:31N 55°51' E 012°50'0 0.0
2017-Jan-15 00:31N 55°51' E 012°50'0 0.0
2017-Jan-14 23:31N 55°51' E 012°50'0 0.0
2017-Jan-14 22:31N 55°51' E 012°50'0 0.0
2017-Jan-14 21:31N 55°51' E 012°50'0 0.0
2017-Jan-14 20:31N 55°51' E 012°50'0 0.0
2017-Jan-14 19:31N 55°51' E 012°50'0 0.0
2017-Jan-14 18:31N 55°51' E 012°50'0 0.0
2017-Jan-14 17:31N 55°51' E 012°50'0 0.0
2017-Jan-14 16:31N 55°51' E 012°50'0 0.0
2017-Jan-14 15:31N 55°51' E 012°50'0 0.0
2017-Jan-14 14:31N 55°51' E 012°50'0 0.0
2017-Jan-14 13:31N 55°51' E 012°50'0 0.0
2017-Jan-14 12:31N 55°51' E 012°50'0 0.0
2017-Jan-14 11:31N 55°51' E 012°50'0 0.0
2017-Jan-14 10:31N 55°51' E 012°50'0 0.0
2017-Jan-14 09:31N 55°51' E 012°50'0 0.0
2017-Jan-14 08:31N 55°51' E 012°50'0 0.0
2017-Jan-14 07:31N 55°51' E 012°50'0 0.0
2017-Jan-14 06:31N 55°51' E 012°50'0 0.0
2017-Jan-14 05:31N 55°51' E 012°50'0 0.0
2017-Jan-14 04:31N 55°51' E 012°50'0 0.0
2017-Jan-14 03:31N 55°51' E 012°50'0 0.0
2017-Jan-13 23:31N 55°51' E 012°50'0 0.0
2017-Jan-13 22:31N 55°51' E 012°50'0 0.0
2017-Jan-13 21:31N 55°51' E 012°50'0 0.0
2017-Jan-13 20:31N 55°51' E 012°50'0 0.0
2017-Jan-13 19:31N 55°51' E 012°50'0 0.0
2017-Jan-13 18:31N 55°51' E 012°50'0 0.0
2017-Jan-13 17:31N 55°51' E 012°50'0 0.0
2017-Jan-13 16:31N 55°51' E 012°50'0 0.0
2017-Jan-13 15:31N 55°51' E 012°50'0 0.0
2017-Jan-13 14:31N 55°51' E 012°50'0 0.3
2017-Jan-13 13:33N 55°51' E 012°50'4 3.6
2017-Jan-13 12:33N 55°50' E 012°44'9 9.0
2017-Jan-13 11:33N 55°42' E 012°36'0 0.0
2017-Jan-13 10:31N 55°42' E 012°36'0 0.1
2017-Jan-13 09:31N 55°42' E 012°36'0 0.1
2017-Jan-13 08:31N 55°42' E 012°36'8 8.3
2017-Jan-13 07:34N 55°49' E 012°42'1515.1
2017-Jan-13 06:33N 56°04' E 012°37'8016.0
2017-Jan-13 01:33N 57°19' E 011°46'1818.4
2017-Jan-13 00:33N 57°34' E 011°27'1817.7
2017-Jan-12 23:33N 57°51' E 011°16'  
Track history (hours):
 
Tides and Currents Weather Stations Pressure Air Temp Water Temp Dewpoint Dewpoint Depression Visibility Wind Speed Wind Dir Waves Ship Positions

Pearl Of Scandinavia

Last reported at 2017-Jan-22 23:33 UTC. Time now 2017-Jan-23 00:18 UTC.
Position N 57°50' E 011°17'.

Length 176.4 m; beam 34 m; draft 6.215 m.

Type: Ship. MMSI: 219945000.

Date/timePositionNaut miles runAvg speedWind from/ knotsBaromVisibWave heightAir tempDewpointWater temp
2017-Jan-22 23:33N 57°50' E 011°17'1616.0
2017-Jan-22 22:34N 58°05' E 011°08'1616.2
2017-Jan-22 21:33N 58°21' E 010°59'1616.1
2017-Jan-22 20:33N 58°36' E 010°51'1615.9
2017-Jan-22 19:34N 58°51' E 010°44'1616.2
2017-Jan-22 18:33N 59°07' E 010°39'1716.7
2017-Jan-22 17:34N 59°24' E 010°33'1615.7
2017-Jan-22 16:33N 59°40' E 010°37'1414.1
2017-Jan-22 15:33N 59°53' E 010°41'0 0.0
2017-Jan-22 08:19N 59°53' E 010°41'1013.9
2017-Jan-22 07:34N 59°43' E 010°35'1414.3
2017-Jan-22 06:33N 59°29' E 010°35'1615.8
2017-Jan-22 05:34N 59°13' E 010°38'1615.8
2017-Jan-22 04:34N 58°58' E 010°37'1616.2
2017-Jan-22 03:33N 58°41' E 010°35'1716.6
2017-Jan-22 02:33N 58°25' E 010°42'1916.6
2017-Jan-22 01:25N 58°07' E 010°53'1416.5
2017-Jan-22 00:33N 57°54' E 011°01'1616.0
2017-Jan-21 23:34N 57°39' E 011°12'1616.4
2017-Jan-21 22:33N 57°25' E 011°30'1616.3
2017-Jan-21 21:33N 57°10' E 011°40'1716.7
2017-Jan-21 20:33N 56°54' E 011°49'5016.8
2017-Jan-21 17:33N 56°09' E 012°30'1717.2
2017-Jan-21 16:34N 55°54' E 012°44'1312.8
2017-Jan-21 15:33N 55°42' E 012°36'0 0.1
2017-Jan-21 14:32N 55°42' E 012°36'0 0.0
2017-Jan-21 13:32N 55°42' E 012°36'0 0.0
2017-Jan-21 12:32N 55°42' E 012°36'0 0.0
2017-Jan-21 11:32N 55°42' E 012°36'0 0.0
2017-Jan-21 10:32N 55°42' E 012°36'0 0.0
2017-Jan-21 09:32N 55°42' E 012°36'0 0.3
2017-Jan-21 08:34N 55°42' E 012°36'1211.9
2017-Jan-21 07:33N 55°54' E 012°39'1313.4
2017-Jan-21 06:34N 56°07' E 012°32'6615.6
2017-Jan-21 02:21N 57°10' E 011°57'1417.2
2017-Jan-21 01:34N 57°21' E 011°43'1717.2
2017-Jan-21 00:33N 57°36' E 011°26'1817.5
2017-Jan-20 23:34N 57°52' E 011°15'1716.4
2017-Jan-20 22:33N 58°08' E 011°06'1616.2
2017-Jan-20 21:33N 58°24' E 010°57'1616.5
2017-Jan-20 20:33N 58°39' E 010°49'1716.6
2017-Jan-20 19:34N 58°56' E 010°43'1716.5
2017-Jan-20 18:33N 59°12' E 010°38'1716.6
2017-Jan-20 17:33N 59°29' E 010°34'1514.5
2017-Jan-20 16:33N 59°43' E 010°34'11 1.3
2017-Jan-20 08:14N 59°53' E 010°40'913.7
2017-Jan-20 07:34N 59°44' E 010°35'1413.9
2017-Jan-20 06:33N 59°31' E 010°35'1616.0
2017-Jan-20 05:33N 59°15' E 010°38'1615.6
2017-Jan-20 04:33N 58°59' E 010°42'1515.4
2017-Jan-20 03:33N 58°44' E 010°45'1615.6
2017-Jan-20 02:33N 58°29' E 010°53'1616.4
2017-Jan-20 01:33N 58°13' E 011°02'1616.3
2017-Jan-20 00:34N 57°58' E 011°12'1615.7
2017-Jan-19 23:33N 57°43' E 011°20'1615.7
2017-Jan-19 22:33N 57°28' E 011°29'1615.8
2017-Jan-19 21:34N 57°12' E 011°38'2116.4
2017-Jan-19 20:18N 56°53' E 011°50'1215.8
2017-Jan-19 19:33N 56°44' E 012°04'3516.8
2017-Jan-19 17:27N 56°12' E 012°29'1517.0
2017-Jan-19 16:33N 55°58' E 012°42'1515.4
2017-Jan-19 15:33N 55°43' E 012°38'1 1.4
2017-Jan-19 14:33N 55°42' E 012°36'0 0.0
2017-Jan-19 13:33N 55°42' E 012°36'0 0.0
2017-Jan-19 12:33N 55°42' E 012°36'0 0.0
2017-Jan-19 11:33N 55°42' E 012°36'0 0.0
2017-Jan-19 10:33N 55°42' E 012°36'0 0.0
2017-Jan-19 09:33N 55°42' E 012°36'0 0.0
2017-Jan-19 08:33N 55°42' E 012°36'0 0.0
2017-Jan-19 07:33N 55°42' E 012°36'0 0.0
2017-Jan-19 06:33N 55°42' E 012°36'0 0.0
2017-Jan-19 05:33N 55°42' E 012°36'0 0.0
2017-Jan-19 04:33N 55°42' E 012°36'0 0.0
2017-Jan-19 03:33N 55°42' E 012°36'0 0.0
2017-Jan-19 02:33N 55°42' E 012°36'0 0.0
2017-Jan-19 01:33N 55°42' E 012°36'0 0.0
2017-Jan-19 00:33N 55°42' E 012°36'0 0.0
2017-Jan-18 23:33N 55°42' E 012°36'0 0.0
2017-Jan-18 22:33N 55°42' E 012°36'0 0.0
2017-Jan-18 21:33N 55°42' E 012°36'0 0.0
2017-Jan-18 20:33N 55°42' E 012°36'0 0.0
2017-Jan-18 19:33N 55°42' E 012°36'0 0.0
2017-Jan-18 18:33N 55°42' E 012°36'0 0.0
2017-Jan-18 17:33N 55°42' E 012°36'0 0.0
2017-Jan-18 16:33N 55°42' E 012°36'6 6.0
2017-Jan-18 15:33N 55°47' E 012°42'9 8.6
2017-Jan-18 14:34N 55°56' E 012°39'5 5.0
2017-Jan-18 13:33N 55°53' E 012°47'3 2.4
2017-Jan-18 12:31N 55°51' E 012°50'0 0.0
2017-Jan-18 11:31N 55°51' E 012°50'0 0.0
2017-Jan-18 10:31N 55°51' E 012°50'0 0.0
2017-Jan-18 09:31N 55°51' E 012°50'0 0.0
2017-Jan-18 08:31N 55°51' E 012°50'0 0.0
2017-Jan-18 07:31N 55°51' E 012°50'0 0.0
2017-Jan-18 06:31N 55°51' E 012°50'0 0.0
2017-Jan-18 05:31N 55°51' E 012°50'0 0.0
2017-Jan-18 04:31N 55°51' E 012°50'0 0.0
2017-Jan-18 03:31N 55°51' E 012°50'0 0.0
2017-Jan-18 02:31N 55°51' E 012°50'0 0.0
2017-Jan-18 01:31N 55°51' E 012°50'0 0.0
2017-Jan-18 00:31N 55°51' E 012°50'0 0.0
2017-Jan-17 23:31N 55°51' E 012°50'0 0.0
2017-Jan-17 22:31N 55°51' E 012°50'0 0.0
2017-Jan-17 21:31N 55°51' E 012°50'0 0.0
2017-Jan-17 20:31N 55°51' E 012°50'0 0.0
2017-Jan-17 19:31N 55°51' E 012°50'0 0.0
2017-Jan-17 18:31N 55°51' E 012°50'0 0.0
2017-Jan-17 17:31N 55°51' E 012°50'0 0.0
2017-Jan-17 16:31N 55°51' E 012°50'0 0.0
2017-Jan-17 15:31N 55°51' E 012°50'0 0.0
2017-Jan-17 14:31N 55°51' E 012°50'0 0.0
2017-Jan-17 13:31N 55°51' E 012°50'0 0.0
2017-Jan-17 12:31N 55°51' E 012°50'0 0.0
2017-Jan-17 11:31N 55°51' E 012°50'0 0.0
2017-Jan-17 10:31N 55°51' E 012°50'0 0.0
2017-Jan-17 09:31N 55°51' E 012°50'0 0.0
2017-Jan-17 08:31N 55°51' E 012°50'0 0.0
2017-Jan-17 07:31N 55°51' E 012°50'0 0.0
2017-Jan-17 06:31N 55°51' E 012°50'0 0.0
2017-Jan-17 05:31N 55°51' E 012°50'0 0.0
2017-Jan-17 04:31N 55°51' E 012°50'0 0.0
2017-Jan-17 03:31N 55°51' E 012°50'0 0.0
2017-Jan-17 02:28N 55°51' E 012°50'0 0.0
2017-Jan-17 01:31N 55°51' E 012°50'0 0.0
2017-Jan-17 00:31N 55°51' E 012°50'0 0.0
2017-Jan-16 23:31N 55°51' E 012°50'0 0.0
2017-Jan-16 22:28N 55°51' E 012°50'0 0.0
2017-Jan-16 21:31N 55°51' E 012°50'0 0.0
2017-Jan-16 20:31N 55°51' E 012°50'0 0.0
2017-Jan-16 19:31N 55°51' E 012°50'0 0.0
2017-Jan-16 18:31N 55°51' E 012°50'0 0.0
2017-Jan-16 17:31N 55°51' E 012°50'0 0.0
2017-Jan-16 16:31N 55°51' E 012°50'0 0.0
2017-Jan-16 15:31N 55°51' E 012°50'0 0.0
2017-Jan-16 14:31N 55°51' E 012°50'0 0.0
2017-Jan-16 13:31N 55°51' E 012°50'0 0.0
2017-Jan-16 12:31N 55°51' E 012°50'0 0.0
2017-Jan-16 11:31N 55°51' E 012°50'0 0.0
2017-Jan-16 10:31N 55°51' E 012°50'0 0.0
2017-Jan-16 09:31N 55°51' E 012°50'0 0.0
2017-Jan-16 08:31N 55°51' E 012°50'0 0.0
2017-Jan-16 07:31N 55°51' E 012°50'0 0.0
2017-Jan-16 06:31N 55°51' E 012°50'0 0.0
2017-Jan-16 05:31N 55°51' E 012°50'0 0.0
2017-Jan-16 04:31N 55°51' E 012°50'0 0.0
2017-Jan-16 03:31N 55°51' E 012°50'0 0.0
2017-Jan-16 02:31N 55°51' E 012°50'0 0.0
2017-Jan-16 01:31N 55°51' E 012°50'0 0.0
2017-Jan-16 00:31N 55°51' E 012°50'0 0.0
2017-Jan-15 23:31N 55°51' E 012°50'0 0.0
2017-Jan-15 22:31N 55°51' E 012°50'0 0.0
2017-Jan-15 21:31N 55°51' E 012°50'0 0.0
2017-Jan-15 20:31N 55°51' E 012°50'0 0.0
2017-Jan-15 19:31N 55°51' E 012°50'0 0.0
2017-Jan-15 18:31N 55°51' E 012°50'0 0.0
2017-Jan-15 17:31N 55°51' E 012°50'0 0.0
2017-Jan-15 16:31N 55°51' E 012°50'0 0.0
2017-Jan-15 15:31N 55°51' E 012°50'0 0.0
2017-Jan-15 14:31N 55°51' E 012°50'0 0.0
2017-Jan-15 13:31N 55°51' E 012°50'0 0.0
2017-Jan-15 12:31N 55°51' E 012°50'0 0.0
2017-Jan-15 11:31N 55°51' E 012°50'0 0.0
2017-Jan-15 10:31N 55°51' E 012°50'0 0.0
2017-Jan-15 09:31N 55°51' E 012°50'0 0.0
2017-Jan-15 08:31N 55°51' E 012°50'0 0.0
2017-Jan-15 07:31N 55°51' E 012°50'0 0.0
2017-Jan-15 06:31N 55°51' E 012°50'0 0.0
2017-Jan-15 05:31N 55°51' E 012°50'0 0.0
2017-Jan-15 04:31N 55°51' E 012°50'0 0.0
2017-Jan-15 03:31N 55°51' E 012°50'0 0.0
2017-Jan-15 02:31N 55°51' E 012°50'0 0.0
2017-Jan-15 01:31N 55°51' E 012°50'0 0.0
2017-Jan-15 00:31N 55°51' E 012°50'0 0.0
2017-Jan-14 23:31N 55°51' E 012°50'0 0.0
2017-Jan-14 22:31N 55°51' E 012°50'0 0.0
2017-Jan-14 21:31N 55°51' E 012°50'0 0.0
2017-Jan-14 20:31N 55°51' E 012°50'0 0.0
2017-Jan-14 19:31N 55°51' E 012°50'0 0.0
2017-Jan-14 18:31N 55°51' E 012°50'0 0.0
2017-Jan-14 17:31N 55°51' E 012°50'0 0.0
2017-Jan-14 16:31N 55°51' E 012°50'0 0.0
2017-Jan-14 15:31N 55°51' E 012°50'0 0.0
2017-Jan-14 14:31N 55°51' E 012°50'0 0.0
2017-Jan-14 13:31N 55°51' E 012°50'0 0.0
2017-Jan-14 12:31N 55°51' E 012°50'0 0.0
2017-Jan-14 11:31N 55°51' E 012°50'0 0.0
2017-Jan-14 10:31N 55°51' E 012°50'0 0.0
2017-Jan-14 09:31N 55°51' E 012°50'0 0.0
2017-Jan-14 08:31N 55°51' E 012°50'0 0.0
2017-Jan-14 07:31N 55°51' E 012°50'0 0.0
2017-Jan-14 06:31N 55°51' E 012°50'0 0.0
2017-Jan-14 05:31N 55°51' E 012°50'0 0.0
2017-Jan-14 04:31N 55°51' E 012°50'0 0.0
2017-Jan-14 03:31N 55°51' E 012°50'0 0.0
2017-Jan-13 23:31N 55°51' E 012°50'0 0.0
2017-Jan-13 22:31N 55°51' E 012°50'0 0.0
2017-Jan-13 21:31N 55°51' E 012°50'0 0.0
2017-Jan-13 20:31N 55°51' E 012°50'0 0.0
2017-Jan-13 19:31N 55°51' E 012°50'0 0.0
2017-Jan-13 18:31N 55°51' E 012°50'0 0.0
2017-Jan-13 17:31N 55°51' E 012°50'0 0.0
2017-Jan-13 16:31N 55°51' E 012°50'0 0.0
2017-Jan-13 15:31N 55°51' E 012°50'0 0.0
2017-Jan-13 14:31N 55°51' E 012°50'0 0.3
2017-Jan-13 13:33N 55°51' E 012°50'4 3.6
2017-Jan-13 12:33N 55°50' E 012°44'9 9.0
2017-Jan-13 11:33N 55°42' E 012°36'0 0.0
2017-Jan-13 10:31N 55°42' E 012°36'0 0.1
2017-Jan-13 09:31N 55°42' E 012°36'0 0.1
2017-Jan-13 08:31N 55°42' E 012°36'8 8.3
2017-Jan-13 07:34N 55°49' E 012°42'1515.1
2017-Jan-13 06:33N 56°04' E 012°37'8016.0
2017-Jan-13 01:33N 57°19' E 011°46'1818.4
2017-Jan-13 00:33N 57°34' E 011°27'1817.7
2017-Jan-12 23:33N 57°51' E 011°16'  

Dump ship's entire track history